Time;durP1;ratioP1;P1;durP2;ratioP2;P2;SDS_P1;SDS_P2;PMS_P1;PMS_P2;Temp;Humidity;BMP_temperature;BMP_pressure;BME280_temperature;BME280_humidity;BME280_pressure;Samples;Min_cycle;Max_cycle;Signal;HPM_P1;HPM_P2
2022/01/05 00:00:12;;;;;;;;;;;2.20;99.90;;;;;;4990702;28;20476;-38
2022/01/05 00:02:40;;;;;;;;;;;2.20;99.90;;;;;;4993867;28;19932;-37
2022/01/05 00:05:07;;;;;;;;;;;2.10;99.90;;;;;;4991240;28;19973;-37
2022/01/05 00:07:35;;;;;;;;;;;2.10;99.90;;;;;;4993433;28;20398;-37
2022/01/05 00:10:02;;;;;;;;;;;2.20;99.90;;;;;;4993525;28;19972;-39
2022/01/05 00:12:29;;;;;;;;;;;2.20;99.90;;;;;;4996762;28;20008;-36
2022/01/05 00:14:55;;;;;;;;;;;2.20;99.90;;;;;;4993861;28;19925;-39
2022/01/05 00:17:22;;;;;;;;;;;2.20;99.90;;;;;;4993696;28;20016;-37
2022/01/05 00:19:49;;;;;;;;;;;2.30;99.90;;;;;;4994703;28;19926;-36
2022/01/05 00:22:16;;;;;;;;;;;2.30;99.90;;;;;;4997976;28;20408;-37
2022/01/05 00:24:45;;;;;;;;;;;2.30;99.90;;;;;;4992142;28;19936;-37
2022/01/05 00:27:12;;;;;;;;;;;2.30;99.90;;;;;;4994539;28;19980;-37
2022/01/05 00:29:38;;;;;;;;;;;2.30;99.90;;;;;;4995215;28;20313;-37
2022/01/05 00:32:08;;;;;;;;;;;2.30;99.90;;;;;;4995188;28;19964;-37
2022/01/05 00:34:35;;;;;;;;;;;2.30;99.90;;;;;;4994462;28;19930;-37
2022/01/05 00:37:02;;;;;;;;;;;2.30;99.90;;;;;;4983728;28;19930;-38
2022/01/05 00:39:29;;;;;;;;;;;2.30;99.90;;;;;;4994315;28;19933;-37
2022/01/05 00:41:57;;;;;;;;;;;2.30;99.90;;;;;;4992497;28;19926;-39
2022/01/05 00:44:24;;;;;;;;;;;2.30;99.90;;;;;;4992132;28;19976;-38
2022/01/05 00:46:51;;;;;;;;;;;2.30;99.90;;;;;;4994252;28;19925;-37
2022/01/05 00:49:18;;;;;;;;;;;2.20;99.90;;;;;;4993537;28;19930;-37
2022/01/05 00:51:44;;;;;;;;;;;2.30;99.90;;;;;;4992108;28;19932;-37
2022/01/05 00:54:11;;;;;;;;;;;2.20;99.90;;;;;;4993580;28;19976;-38
2022/01/05 00:56:38;;;;;;;;;;;2.20;99.90;;;;;;4992344;28;19965;-37
2022/01/05 00:59:06;;;;;;;;;;;2.20;99.90;;;;;;4988349;28;19926;-38
2022/01/05 01:01:33;;;;;;;;;;;2.20;99.90;;;;;;4999495;28;19936;-37
2022/01/05 01:03:59;;;;;;;;;;;2.20;99.90;;;;;;5000876;28;20393;-37
2022/01/05 01:06:26;;;;;;;;;;;2.10;99.90;;;;;;4997731;28;19926;-37
2022/01/05 01:08:53;;;;;;;;;;;2.10;99.90;;;;;;4994369;28;19930;-38
2022/01/05 01:11:20;;;;;;;;;;;2.10;99.90;;;;;;4998447;28;19925;-38
2022/01/05 01:13:47;;;;;;;;;;;2.10;99.90;;;;;;4997465;28;19984;-37
2022/01/05 01:16:15;;;;;;;;;;;2.10;99.90;;;;;;4993657;28;20239;-37
2022/01/05 01:18:41;;;;;;;;;;;2.10;99.90;;;;;;4996050;28;19973;-37
2022/01/05 01:21:08;;;;;;;;;;;2.10;99.90;;;;;;4995128;28;20313;-38
2022/01/05 01:23:36;;;;;;;;;;;2.10;99.90;;;;;;4998677;28;19979;-37
2022/01/05 01:26:03;;;;;;;;;;;2.10;99.90;;;;;;4995002;28;19930;-38
2022/01/05 01:28:30;;;;;;;;;;;2.10;99.90;;;;;;4998063;28;20420;-37
2022/01/05 01:30:57;;;;;;;;;;;2.10;99.90;;;;;;4993930;28;20404;-38
2022/01/05 01:33:25;;;;;;;;;;;2.10;99.90;;;;;;5002178;28;19988;-37
2022/01/05 01:35:52;;;;;;;;;;;2.10;99.90;;;;;;4995683;28;19965;-38
2022/01/05 01:38:18;;;;;;;;;;;2.10;99.90;;;;;;4997264;28;19972;-37
2022/01/05 01:40:45;;;;;;;;;;;2.10;99.90;;;;;;4994412;28;19926;-38
2022/01/05 01:43:12;;;;;;;;;;;2.10;99.90;;;;;;4997106;28;19926;-38
2022/01/05 01:45:39;;;;;;;;;;;2.10;99.90;;;;;;4994316;28;20342;-38
2022/01/05 01:48:05;;;;;;;;;;;2.20;99.90;;;;;;4992833;28;19969;-38
2022/01/05 01:50:33;;;;;;;;;;;2.10;99.90;;;;;;4986840;28;19938;-37
2022/01/05 01:53:00;;;;;;;;;;;2.10;99.90;;;;;;4994537;28;19926;-38
2022/01/05 01:55:27;;;;;;;;;;;2.10;99.90;;;;;;4996962;28;19980;-38
2022/01/05 01:57:54;;;;;;;;;;;2.10;99.90;;;;;;4999594;28;20290;-40
2022/01/05 02:00:21;;;;;;;;;;;2.10;99.90;;;;;;4994872;28;20016;-37
2022/01/05 02:02:48;;;;;;;;;;;2.10;99.90;;;;;;4992859;28;19984;-37
2022/01/05 02:05:15;;;;;;;;;;;2.10;99.90;;;;;;4989822;28;20011;-37
2022/01/05 02:07:43;;;;;;;;;;;2.10;99.90;;;;;;4992657;28;20016;-42
2022/01/05 02:10:10;;;;;;;;;;;2.10;99.90;;;;;;4992362;28;20016;-38
2022/01/05 02:12:37;;;;;;;;;;;2.10;99.90;;;;;;4991867;28;20021;-38
2022/01/05 02:15:04;;;;;;;;;;;2.10;99.90;;;;;;4992363;28;19930;-37
2022/01/05 02:17:41;;;;;;;;;;;2.10;99.90;;;;;;4994173;28;19976;-39
2022/01/05 02:20:12;;;;;;;;;;;2.10;99.90;;;;;;4991722;28;19949;-38
2022/01/05 02:22:40;;;;;;;;;;;2.20;99.90;;;;;;4993356;28;19973;-38
2022/01/05 02:25:07;;;;;;;;;;;2.10;99.90;;;;;;4991974;28;20023;-38
2022/01/05 02:27:34;;;;;;;;;;;2.10;99.90;;;;;;4996234;28;20028;-39
2022/01/05 02:30:01;;;;;;;;;;;2.20;99.90;;;;;;4992656;28;20060;-37
2022/01/05 02:32:27;;;;;;;;;;;2.10;99.90;;;;;;4992341;28;20013;-38
2022/01/05 02:34:54;;;;;;;;;;;2.20;99.90;;;;;;4996543;28;19973;-38
2022/01/05 02:37:21;;;;;;;;;;;2.20;99.90;;;;;;4995481;28;20365;-37
2022/01/05 02:39:49;;;;;;;;;;;2.10;99.90;;;;;;4993122;28;19996;-37
2022/01/05 02:42:24;;;;;;;;;;;2.20;99.90;;;;;;4997116;28;19968;-37
2022/01/05 02:44:51;;;;;;;;;;;2.10;99.90;;;;;;4999297;28;19932;-37
2022/01/05 02:47:18;;;;;;;;;;;2.20;99.90;;;;;;4993149;28;19926;-38
2022/01/05 02:49:44;;;;;;;;;;;2.20;99.90;;;;;;4994741;28;20472;-37
2022/01/05 02:52:11;;;;;;;;;;;2.10;99.90;;;;;;5000343;28;20473;-38
2022/01/05 02:54:38;;;;;;;;;;;2.30;99.90;;;;;;4996065;28;19933;-37
2022/01/05 02:57:06;;;;;;;;;;;2.20;99.90;;;;;;4996364;28;19972;-39
2022/01/05 02:59:33;;;;;;;;;;;2.20;99.90;;;;;;4993717;28;19932;-37
2022/01/05 03:02:00;;;;;;;;;;;2.20;99.90;;;;;;4994871;28;20420;-38
2022/01/05 03:04:27;;;;;;;;;;;2.20;99.90;;;;;;4994156;28;19926;-37
2022/01/05 03:06:54;;;;;;;;;;;2.20;99.90;;;;;;5001057;28;19957;-37
2022/01/05 03:09:20;;;;;;;;;;;2.20;99.90;;;;;;5000385;28;20386;-39
2022/01/05 03:11:47;;;;;;;;;;;2.30;99.90;;;;;;4990832;28;19926;-37
2022/01/05 03:14:15;;;;;;;;;;;2.30;99.90;;;;;;5000377;28;19930;-39
2022/01/05 03:16:42;;;;;;;;;;;2.30;99.90;;;;;;4997422;28;19968;-37
2022/01/05 03:19:09;;;;;;;;;;;2.40;99.90;;;;;;4989756;28;20020;-37
2022/01/05 03:21:35;;;;;;;;;;;2.40;99.90;;;;;;5003938;28;19965;-38
2022/01/05 03:24:02;;;;;;;;;;;2.50;99.90;;;;;;4997832;28;20366;-38
2022/01/05 03:26:29;;;;;;;;;;;2.50;99.90;;;;;;4998501;28;19925;-38
2022/01/05 03:28:56;;;;;;;;;;;2.50;99.90;;;;;;4991391;28;19932;-38
2022/01/05 03:31:24;;;;;;;;;;;2.50;99.90;;;;;;5000976;28;20021;-38
2022/01/05 03:33:51;;;;;;;;;;;2.50;99.90;;;;;;4997671;28;19977;-38
2022/01/05 03:36:17;;;;;;;;;;;2.60;99.90;;;;;;4992829;28;20329;-38
2022/01/05 03:38:44;;;;;;;;;;;2.60;99.90;;;;;;4997357;28;19999;-38
2022/01/05 03:41:11;;;;;;;;;;;2.60;99.90;;;;;;4998308;28;19987;-37
2022/01/05 03:43:38;;;;;;;;;;;2.60;99.90;;;;;;5003352;28;19972;-39
2022/01/05 03:46:05;;;;;;;;;;;2.60;99.90;;;;;;5000363;28;19926;-39
2022/01/05 03:48:33;;;;;;;;;;;2.60;99.90;;;;;;4995980;28;20021;-39
2022/01/05 03:51:00;;;;;;;;;;;2.60;99.90;;;;;;5001204;28;19988;-39
2022/01/05 03:53:26;;;;;;;;;;;2.60;99.90;;;;;;4999175;28;19976;-38
2022/01/05 03:55:53;;;;;;;;;;;2.60;99.90;;;;;;4997578;28;19932;-38
2022/01/05 03:58:20;;;;;;;;;;;2.70;99.90;;;;;;4995311;28;20305;-38
2022/01/05 04:00:48;;;;;;;;;;;2.70;99.90;;;;;;4990939;28;19926;-38
2022/01/05 04:03:15;;;;;;;;;;;2.70;99.90;;;;;;4995735;28;20382;-38
2022/01/05 04:05:43;;;;;;;;;;;2.70;99.90;;;;;;4995536;28;20370;-38
2022/01/05 04:08:10;;;;;;;;;;;2.70;99.90;;;;;;4995558;28;19934;-39
2022/01/05 04:10:37;;;;;;;;;;;2.80;99.90;;;;;;4995819;28;19932;-38
2022/01/05 04:13:04;;;;;;;;;;;2.80;99.90;;;;;;4994571;28;20187;-38
2022/01/05 04:15:30;;;;;;;;;;;2.80;99.90;;;;;;4996508;28;20341;-41
2022/01/05 04:17:57;;;;;;;;;;;2.80;99.90;;;;;;4995297;28;19930;-38
2022/01/05 04:20:24;;;;;;;;;;;2.80;99.90;;;;;;4995665;28;20455;-38
2022/01/05 04:22:52;;;;;;;;;;;2.80;99.90;;;;;;4995595;28;19996;-38
2022/01/05 04:25:19;;;;;;;;;;;2.80;99.90;;;;;;4994725;28;19926;-39
2022/01/05 04:27:45;;;;;;;;;;;2.90;99.90;;;;;;4995759;28;19926;-39
2022/01/05 04:30:12;;;;;;;;;;;2.90;99.90;;;;;;4996041;28;20012;-38
2022/01/05 04:32:39;;;;;;;;;;;3.00;99.90;;;;;;4996356;28;19926;-38
2022/01/05 04:35:06;;;;;;;;;;;3.00;99.90;;;;;;4993924;28;19925;-38
2022/01/05 04:37:33;;;;;;;;;;;3.00;99.90;;;;;;4989488;28;19980;-38
2022/01/05 04:40:01;;;;;;;;;;;3.10;99.90;;;;;;4998723;28;19957;-38
2022/01/05 04:42:28;;;;;;;;;;;3.10;99.90;;;;;;4999207;28;20000;-38
2022/01/05 04:44:55;;;;;;;;;;;3.10;99.90;;;;;;4991368;28;19926;-38
2022/01/05 04:47:22;;;;;;;;;;;3.10;99.90;;;;;;4996588;28;20381;-38
2022/01/05 04:49:48;;;;;;;;;;;3.10;99.90;;;;;;4995817;28;20273;-38
2022/01/05 04:52:15;;;;;;;;;;;3.10;99.90;;;;;;4994806;28;19936;-38
2022/01/05 04:54:42;;;;;;;;;;;3.10;99.90;;;;;;4994957;28;19932;-38
2022/01/05 04:57:10;;;;;;;;;;;3.10;99.90;;;;;;4995605;28;19925;-39
2022/01/05 04:59:37;;;;;;;;;;;3.00;99.90;;;;;;4998070;28;19932;-38
2022/01/05 05:02:04;;;;;;;;;;;3.00;99.90;;;;;;4992095;28;19987;-39
2022/01/05 05:04:31;;;;;;;;;;;3.00;99.90;;;;;;4994168;28;19933;-38
2022/01/05 05:06:57;;;;;;;;;;;3.10;99.90;;;;;;5000279;28;19932;-38
2022/01/05 05:09:24;;;;;;;;;;;3.00;99.90;;;;;;4993079;28;19988;-38
2022/01/05 05:11:52;;;;;;;;;;;3.10;99.90;;;;;;4991513;28;19973;-38
2022/01/05 05:14:20;;;;;;;;;;;3.00;99.90;;;;;;4991909;28;19929;-38
2022/01/05 05:16:46;;;;;;;;;;;3.00;99.90;;;;;;4994671;28;19984;-38
2022/01/05 05:19:13;;;;;;;;;;;3.10;99.90;;;;;;4991864;28;19969;-38
2022/01/05 05:21:40;;;;;;;;;;;3.10;99.90;;;;;;4995419;28;20308;-39
2022/01/05 05:24:07;;;;;;;;;;;3.00;99.90;;;;;;4992691;28;20292;-40
2022/01/05 05:26:33;;;;;;;;;;;3.10;99.90;;;;;;5000328;28;20024;-38
2022/01/05 05:29:00;;;;;;;;;;;3.00;99.90;;;;;;4993813;28;19936;-38
2022/01/05 05:31:28;;;;;;;;;;;3.10;99.90;;;;;;4991977;28;19932;-38
2022/01/05 05:33:55;;;;;;;;;;;3.10;99.90;;;;;;4992601;28;19973;-38
2022/01/05 05:36:22;;;;;;;;;;;3.10;99.90;;;;;;4993878;28;19926;-38
2022/01/05 05:38:49;;;;;;;;;;;3.20;99.90;;;;;;4993168;28;20028;-38
2022/01/05 05:41:15;;;;;;;;;;;3.20;99.90;;;;;;4995323;28;19996;-38
2022/01/05 05:43:42;;;;;;;;;;;3.20;99.90;;;;;;4991783;28;19926;-38
2022/01/05 05:46:10;;;;;;;;;;;3.20;99.90;;;;;;4993906;28;19965;-38
2022/01/05 05:48:38;;;;;;;;;;;3.30;99.90;;;;;;4993534;28;19934;-39
2022/01/05 05:51:05;;;;;;;;;;;3.30;99.90;;;;;;4998472;28;19972;-40
2022/01/05 05:53:31;;;;;;;;;;;3.40;99.90;;;;;;4993822;28;19930;-38
2022/01/05 05:55:58;;;;;;;;;;;3.40;99.90;;;;;;4991941;28;20021;-37
2022/01/05 05:58:25;;;;;;;;;;;3.50;99.90;;;;;;4992107;28;19948;-39
2022/01/05 06:00:52;;;;;;;;;;;3.50;99.90;;;;;;4993840;28;19926;-39
2022/01/05 06:03:18;;;;;;;;;;;3.50;99.90;;;;;;4990081;28;20372;-38
2022/01/05 06:05:47;;;;;;;;;;;3.60;99.90;;;;;;4986190;28;19969;-39
2022/01/05 06:08:13;;;;;;;;;;;3.70;99.90;;;;;;4992843;28;19936;-38
2022/01/05 06:10:40;;;;;;;;;;;3.70;99.90;;;;;;4993674;28;19940;-38
2022/01/05 06:13:07;;;;;;;;;;;3.80;99.90;;;;;;4992830;28;19925;-37
2022/01/05 06:15:34;;;;;;;;;;;3.80;99.90;;;;;;4991721;28;20394;-38
2022/01/05 06:18:00;;;;;;;;;;;3.80;99.90;;;;;;5001983;28;20301;-39
2022/01/05 06:20:27;;;;;;;;;;;3.80;99.90;;;;;;4991054;28;19925;-37
2022/01/05 06:22:55;;;;;;;;;;;3.80;99.90;;;;;;4991309;28;20721;-37
2022/01/05 06:25:22;;;;;;;;;;;3.80;99.90;;;;;;4992391;28;19926;-38
2022/01/05 06:27:49;;;;;;;;;;;3.80;99.90;;;;;;4990324;28;19926;-38
2022/01/05 06:30:15;;;;;;;;;;;3.80;99.90;;;;;;4990847;28;19987;-38
2022/01/05 06:32:43;;;;;;;;;;;3.80;99.90;;;;;;4990964;28;19934;-38
2022/01/05 06:35:09;;;;;;;;;;;3.80;99.90;;;;;;4991502;28;20472;-39
2022/01/05 06:37:36;;;;;;;;;;;3.80;99.90;;;;;;4991026;28;19933;-40
2022/01/05 06:40:05;;;;;;;;;;;3.80;99.90;;;;;;4987735;28;19930;-38
2022/01/05 06:42:32;;;;;;;;;;;3.80;99.90;;;;;;4964634;28;19940;-38
2022/01/05 06:44:58;;;;;;;;;;;3.80;99.90;;;;;;4990354;28;19926;-39
2022/01/05 06:47:25;;;;;;;;;;;3.80;99.90;;;;;;4986551;28;19988;-38
2022/01/05 06:49:52;;;;;;;;;;;3.80;99.90;;;;;;4989556;28;19965;-38
2022/01/05 06:52:19;;;;;;;;;;;3.90;99.90;;;;;;4990354;28;19969;-38
2022/01/05 06:54:45;;;;;;;;;;;3.80;99.90;;;;;;4990469;28;20137;-38
2022/01/05 06:57:14;;;;;;;;;;;3.90;99.90;;;;;;4993332;28;19934;-37
2022/01/05 06:59:40;;;;;;;;;;;3.90;99.90;;;;;;4994978;28;19947;-40
2022/01/05 07:02:07;;;;;;;;;;;3.90;99.90;;;;;;4983406;28;19933;-38
2022/01/05 07:04:34;;;;;;;;;;;3.90;99.90;;;;;;4989566;28;19926;-38
2022/01/05 07:07:01;;;;;;;;;;;3.90;99.90;;;;;;4990008;28;20390;-38
2022/01/05 07:09:27;;;;;;;;;;;3.90;99.90;;;;;;4984235;28;19964;-38
2022/01/05 07:11:54;;;;;;;;;;;3.90;99.90;;;;;;4988849;28;20012;-38
2022/01/05 07:14:23;;;;;;;;;;;3.90;99.90;;;;;;4991237;28;19965;-38
2022/01/05 07:16:50;;;;;;;;;;;3.90;99.90;;;;;;4984072;28;20018;-38
2022/01/05 07:19:17;;;;;;;;;;;3.80;99.90;;;;;;4989793;28;19934;-39
2022/01/05 07:21:44;;;;;;;;;;;3.80;99.90;;;;;;4987326;28;19926;-40
2022/01/05 07:24:13;;;;;;;;;;;3.80;99.90;;;;;;4984466;28;19934;-40
2022/01/05 07:26:40;;;;;;;;;;;3.80;99.90;;;;;;4988576;28;19953;-38
2022/01/05 07:29:07;;;;;;;;;;;3.80;99.90;;;;;;4990871;28;19926;-37
2022/01/05 07:31:35;;;;;;;;;;;3.80;99.90;;;;;;4987914;28;19926;-38
2022/01/05 07:34:01;;;;;;;;;;;3.80;99.90;;;;;;4994907;28;19977;-39
2022/01/05 07:36:28;;;;;;;;;;;3.70;99.90;;;;;;4993241;28;19965;-38
2022/01/05 07:38:55;;;;;;;;;;;3.80;99.90;;;;;;4989549;28;19936;-38
2022/01/05 07:41:22;;;;;;;;;;;3.70;99.90;;;;;;4990642;28;20461;-38
2022/01/05 07:43:49;;;;;;;;;;;3.80;99.90;;;;;;4994393;28;19925;-39
2022/01/05 07:46:15;;;;;;;;;;;3.80;99.90;;;;;;4997768;28;19926;-38
2022/01/05 07:48:43;;;;;;;;;;;3.80;99.90;;;;;;4998106;28;19968;-38
2022/01/05 07:51:10;;;;;;;;;;;3.80;99.90;;;;;;4983862;28;19934;-38
2022/01/05 07:53:37;;;;;;;;;;;3.90;99.90;;;;;;4969189;28;19972;-39
2022/01/05 07:56:04;;;;;;;;;;;3.90;99.90;;;;;;5003410;28;20008;-38
2022/01/05 07:58:31;;;;;;;;;;;3.90;99.90;;;;;;4991126;28;19957;-39
2022/01/05 08:00:58;;;;;;;;;;;3.90;99.90;;;;;;4992720;28;20299;-38
2022/01/05 08:03:25;;;;;;;;;;;4.00;99.90;;;;;;4994636;28;19988;-38
2022/01/05 08:05:53;;;;;;;;;;;4.00;99.90;;;;;;4988736;28;19926;-37
2022/01/05 08:08:20;;;;;;;;;;;4.00;99.90;;;;;;4993370;28;19933;-38
2022/01/05 08:10:47;;;;;;;;;;;4.10;99.90;;;;;;4994212;28;19925;-41
2022/01/05 08:13:13;;;;;;;;;;;4.10;99.90;;;;;;4990838;28;19925;-38
2022/01/05 08:15:40;;;;;;;;;;;4.20;99.90;;;;;;4992737;28;20293;-37
2022/01/05 08:18:07;;;;;;;;;;;4.20;99.90;;;;;;4994140;28;19980;-38
2022/01/05 08:20:34;;;;;;;;;;;4.40;99.90;;;;;;4993027;28;20013;-39
2022/01/05 08:23:03;;;;;;;;;;;4.40;99.90;;;;;;4995463;28;19925;-37
2022/01/05 08:25:29;;;;;;;;;;;4.50;99.90;;;;;;4988539;28;20378;-37
2022/01/05 08:27:56;;;;;;;;;;;4.50;99.90;;;;;;4993134;28;21464;-39
2022/01/05 08:30:24;;;;;;;;;;;4.60;99.90;;;;;;4985535;28;19969;-38
2022/01/05 08:32:51;;;;;;;;;;;4.60;99.90;;;;;;4990210;28;20031;-37
2022/01/05 08:35:18;;;;;;;;;;;4.60;99.90;;;;;;4994706;28;19926;-39
2022/01/05 08:37:46;;;;;;;;;;;4.70;99.90;;;;;;4981753;28;19925;-40
2022/01/05 08:40:15;;;;;;;;;;;4.70;99.90;;;;;;4995286;28;19937;-40
2022/01/05 08:42:42;;;;;;;;;;;4.70;99.90;;;;;;4986846;28;19930;-40
2022/01/05 08:45:09;;;;;;;;;;;4.70;99.90;;;;;;4987571;28;20421;-40
2022/01/05 08:47:36;;;;;;;;;;;4.80;99.90;;;;;;4989802;28;19969;-40
2022/01/05 08:50:03;;;;;;;;;;;4.80;99.90;;;;;;4990124;28;19929;-39
2022/01/05 08:52:30;;;;;;;;;;;4.80;99.90;;;;;;4992730;28;19956;-40
2022/01/05 08:54:57;;;;;;;;;;;4.80;99.90;;;;;;4990155;28;20017;-40
2022/01/05 08:57:25;;;;;;;;;;;4.80;99.90;;;;;;4996935;28;20013;-40
2022/01/05 08:59:52;;;;;;;;;;;4.90;99.90;;;;;;4997941;28;19936;-40
2022/01/05 09:02:19;;;;;;;;;;;4.90;99.90;;;;;;4991114;28;19925;-41
2022/01/05 09:04:48;;;;;;;;;;;5.00;99.90;;;;;;4993522;28;19965;-40
2022/01/05 09:07:15;;;;;;;;;;;5.00;99.90;;;;;;4993229;28;19926;-40
2022/01/05 09:09:42;;;;;;;;;;;5.00;99.90;;;;;;4996509;28;19938;-40
2022/01/05 09:12:10;;;;;;;;;;;5.10;99.90;;;;;;4997911;28;19925;-41
2022/01/05 09:14:38;;;;;;;;;;;5.10;99.90;;;;;;4989130;28;19992;-41
2022/01/05 09:17:05;;;;;;;;;;;5.20;99.90;;;;;;4992248;28;19929;-42
2022/01/05 09:19:31;;;;;;;;;;;5.20;99.90;;;;;;4996528;28;19988;-41
2022/01/05 09:21:58;;;;;;;;;;;5.30;99.90;;;;;;4996496;28;19965;-41
2022/01/05 09:24:26;;;;;;;;;;;5.30;99.90;;;;;;4996089;28;19926;-42
2022/01/05 09:26:52;;;;;;;;;;;5.30;99.90;;;;;;4991859;28;20013;-41
2022/01/05 09:29:19;;;;;;;;;;;5.30;99.90;;;;;;4988653;28;20398;-40
2022/01/05 09:31:47;;;;;;;;;;;5.40;99.90;;;;;;4991381;28;19934;-40
2022/01/05 09:34:14;;;;;;;;;;;5.30;99.90;;;;;;4998245;28;20396;-41
2022/01/05 09:36:44;;;;;;;;;;;5.40;99.90;;;;;;4991741;28;19939;-42
2022/01/05 09:41:59;;;;;;;;;;;5.50;99.90;;;;;;4991488;28;19926;-40
2022/01/05 09:44:27;;;;;;;;;;;5.50;99.90;;;;;;4990566;28;19933;-41
2022/01/05 09:47:00;;;;;;;;;;;5.50;99.90;;;;;;4992860;28;20338;-41
2022/01/05 09:49:28;;;;;;;;;;;5.60;99.90;;;;;;4991150;28;19929;-41
2022/01/05 09:51:56;;;;;;;;;;;5.50;99.90;;;;;;4992020;28;19926;-41
2022/01/05 09:54:23;;;;;;;;;;;5.50;99.90;;;;;;4988656;28;19973;-42
2022/01/05 09:56:49;;;;;;;;;;;5.60;99.90;;;;;;4987881;28;20374;-42
2022/01/05 09:59:16;;;;;;;;;;;5.60;99.90;;;;;;4985624;28;19973;-41
2022/01/05 10:01:43;;;;;;;;;;;5.60;99.90;;;;;;4987204;28;19938;-42
2022/01/05 10:04:13;;;;;;;;;;;5.60;99.90;;;;;;4989853;28;20367;-41
2022/01/05 10:06:40;;;;;;;;;;;5.70;99.90;;;;;;4987356;28;19940;-41
2022/01/05 10:09:08;;;;;;;;;;;5.70;99.90;;;;;;4990218;28;19929;-42
2022/01/05 10:11:34;;;;;;;;;;;5.80;99.90;;;;;;4990820;28;20071;-41
2022/01/05 10:14:01;;;;;;;;;;;5.80;99.90;;;;;;4992245;28;19930;-41
2022/01/05 10:16:28;;;;;;;;;;;5.80;99.90;;;;;;4995712;28;20352;-41
2022/01/05 10:18:55;;;;;;;;;;;5.80;99.90;;;;;;4991099;28;20406;-42
2022/01/05 10:21:23;;;;;;;;;;;5.90;99.90;;;;;;4989334;28;19988;-41
2022/01/05 10:23:50;;;;;;;;;;;6.00;99.90;;;;;;4991759;28;19933;-41
2022/01/05 10:26:26;;;;;;;;;;;6.00;99.90;;;;;;4990120;28;19926;-41
2022/01/05 10:28:53;;;;;;;;;;;6.00;99.90;;;;;;4996063;28;19926;-41
2022/01/05 10:31:20;;;;;;;;;;;6.10;99.90;;;;;;4993710;28;19933;-41
2022/01/05 10:33:47;;;;;;;;;;;6.10;99.90;;;;;;4998569;28;20403;-42
2022/01/05 10:36:14;;;;;;;;;;;6.30;99.90;;;;;;4997239;28;20031;-42
2022/01/05 10:38:51;;;;;;;;;;;6.30;99.90;;;;;;4992900;28;19929;-42
2022/01/05 10:41:22;;;;;;;;;;;6.40;99.90;;;;;;4997028;28;19932;-42
2022/01/05 10:44:08;;;;;;;;;;;6.50;99.90;;;;;;5002532;28;19979;-42
2022/01/05 10:46:35;;;;;;;;;;;6.50;99.90;;;;;;4995588;28;20061;-42
2022/01/05 10:49:03;;;;;;;;;;;6.50;99.90;;;;;;4992767;28;19930;-42
2022/01/05 10:51:30;;;;;;;;;;;6.50;99.90;;;;;;4987761;28;19926;-42
2022/01/05 10:54:11;;;;;;;;;;;6.50;99.90;;;;;;4988685;28;20359;-42
2022/01/05 10:56:37;;;;;;;;;;;6.60;99.90;;;;;;4989008;28;20024;-43
2022/01/05 10:59:04;;;;;;;;;;;6.70;99.90;;;;;;4988081;28;19940;-42
2022/01/05 11:01:31;;;;;;;;;;;6.80;99.90;;;;;;4983919;28;19940;-41
2022/01/05 11:03:58;;;;;;;;;;;6.80;99.90;;;;;;4988308;28;20283;-42
2022/01/05 11:08:24;;;;;;;27.00;3.72;;;6.90;99.90;;;;;;5139149;27;20106;-44
2022/01/05 11:10:51;;;;;;;25.48;3.92;;;7.00;99.90;;;;;;5131194;27;20135;-44
2022/01/05 11:13:18;;;;;;;33.00;3.92;;;7.10;99.90;;;;;;5100378;28;20083;-46
2022/01/05 11:15:45;;;;;;;27.95;3.80;;;7.10;99.90;;;;;;5103391;28;20051;-45
2022/01/05 11:18:17;;;;;;;26.98;4.03;;;7.20;99.90;;;;;;5102846;27;20414;-44
2022/01/05 11:20:47;;;;;;;23.08;3.50;;;7.20;99.90;;;;;;5118535;27;20086;-44
2022/01/05 11:23:14;;;;;;;20.38;3.67;;;7.30;99.90;;;;;;5097887;28;20090;-42
2022/01/05 11:25:44;;;;;;;24.13;3.22;;;7.30;99.90;;;;;;5126462;27;20087;-45
2022/01/05 11:28:11;;;;;;;17.63;2.42;;;7.30;99.90;;;;;;5122510;28;20042;-44
2022/01/05 11:30:38;;;;;;;16.23;2.97;;;7.30;99.90;;;;;;5103972;28;20070;-44
2022/01/05 11:33:05;;;;;;;15.60;2.80;;;7.40;99.90;;;;;;5100311;27;20047;-44
2022/01/05 11:35:32;;;;;;;15.20;2.35;;;7.40;99.90;;;;;;5099778;27;20053;-45
2022/01/05 11:37:59;;;;;;;13.85;2.10;;;7.40;99.90;;;;;;5094304;27;20067;-44
2022/01/05 11:40:27;;;;;;;13.45;1.92;;;7.40;99.90;;;;;;5109395;27;20122;-45
2022/01/05 11:43:00;;;;;;;19.10;2.28;;;7.40;99.90;;;;;;5112521;27;20054;-44
2022/01/05 11:45:32;;;;;;;17.60;2.20;;;7.40;99.90;;;;;;5114827;28;20439;-42
2022/01/05 11:48:16;;;;;;;13.98;2.10;;;7.40;99.90;;;;;;5124668;27;20046;-47
2022/01/05 11:50:45;;;;;;;19.35;2.90;;;7.40;99.90;;;;;;5121543;27;20437;-45
2022/01/05 11:53:12;;;;;;;20.15;2.20;;;7.50;99.90;;;;;;5097779;27;20074;-44
2022/01/05 11:56:11;;;;;;;21.17;2.55;;;7.50;99.90;;;;;;5112327;27;20082;-45
2022/01/05 11:58:52;;;;;;;23.25;3.20;;;7.50;99.90;;;;;;5114550;27;20060;-45
2022/01/05 12:01:33;;;;;;;20.40;3.80;;;7.50;99.90;;;;;;5124892;27;20129;-42
2022/01/05 12:04:11;;;;;;;23.87;3.43;;;7.30;99.90;;;;;;5042967;27;20483;-44
2022/01/05 12:07:09;;;;;;;8.70;1.80;;;7.30;99.90;;;;;;5064310;28;20048;-43
2022/01/05 12:09:40;;;;;;;11.77;1.65;;;7.30;99.90;;;;;;5077095;28;20128;-42
2022/01/05 12:12:32;;;;;;;7.15;1.70;;;7.30;99.90;;;;;;5079839;28;20055;-43
2022/01/05 12:15:01;;;;;;;11.57;1.88;;;7.30;99.90;;;;;;5061465;28;20058;-44
2022/01/05 12:17:29;;;;;;;13.43;2.30;;;7.30;99.90;;;;;;5078081;28;20405;-44
2022/01/05 12:20:13;;;;;;;19.25;2.30;;;7.30;99.90;;;;;;5049141;28;20492;-44
2022/01/05 12:22:40;;;;;;;16.10;2.30;;;7.30;99.90;;;;;;5064602;28;20124;-44
2022/01/05 12:25:09;;;;;;;15.65;2.13;;;7.30;99.90;;;;;;5040388;28;20133;-44
2022/01/05 12:27:37;;;;;;;16.80;2.45;;;7.30;99.90;;;;;;5067990;28;20103;-44
2022/01/05 12:30:33;;;;;;;15.60;2.40;;;7.40;99.90;;;;;;5046341;28;20048;-43
2022/01/05 12:33:05;;;;;;;13.88;2.08;;;7.40;99.90;;;;;;5042615;28;20044;-44
2022/01/05 12:35:53;;;;;;;26.42;3.35;;;7.40;99.90;;;;;;5064693;28;20114;-44
2022/01/05 12:38:34;;;;;;;18.42;3.58;;;7.40;99.90;;;;;;5061826;28;21479;-45
2022/01/05 12:41:23;;;;;;;15.65;2.60;;;7.50;99.90;;;;;;5058668;28;20054;-44
2022/01/05 12:43:51;;;;;;;20.02;3.65;;;7.40;99.90;;;;;;5058583;28;20048;-41
2022/01/05 12:46:37;;;;;;;22.73;3.33;;;7.50;99.90;;;;;;5041311;28;20459;-42
2022/01/05 12:49:06;;;;;;;23.13;3.38;;;7.50;99.90;;;;;;5042891;28;20044;-47
2022/01/05 12:51:34;;;;;;;23.05;3.15;;;7.50;99.90;;;;;;5063800;28;20052;-43
2022/01/05 12:54:02;;;;;;;16.95;2.20;;;7.50;99.90;;;;;;5065231;28;20063;-43
2022/01/05 12:56:31;;;;;;;17.13;2.17;;;7.50;99.90;;;;;;5041601;28;20044;-42
2022/01/05 12:58:58;;;;;;;14.43;2.72;;;7.40;99.90;;;;;;5045126;28;20056;-43
2022/01/05 13:01:26;;;;;;;12.27;2.08;;;7.30;99.90;;;;;;5064145;28;20045;-44
2022/01/05 13:03:55;;;;;;;16.80;2.53;;;7.20;99.90;;;;;;5057880;28;20083;-45
2022/01/05 13:06:23;;;;;;;12.40;1.92;;;7.10;99.90;;;;;;5047018;28;20056;-44
2022/01/05 13:08:51;;;;;;;19.08;2.38;;;7.00;99.90;;;;;;5060097;28;20465;-44
2022/01/05 13:11:32;;;;;;;13.18;2.28;;;7.00;99.90;;;;;;5065467;28;20076;-47
2022/01/05 13:14:14;;;;;;;20.60;2.97;;;6.90;99.90;;;;;;5066272;28;20056;-44
2022/01/05 13:16:41;;;;;;;;;;;6.90;99.90;;;;;;5067438;28;20456;-44
2022/01/05 13:19:15;;;;;;;13.80;2.28;;;6.90;99.90;;;;;;5059220;28;20409;-44
2022/01/05 13:21:47;;;;;;;19.15;2.58;;;6.90;99.90;;;;;;5063326;28;20052;-44
2022/01/05 13:24:14;;;;;;;26.48;3.15;;;6.90;99.90;;;;;;5050701;28;20518;-46
2022/01/05 13:27:03;;;;;;;22.63;2.63;;;6.90;99.90;;;;;;5062990;28;20048;-42
2022/01/05 13:29:31;;;;;;;18.23;3.17;;;6.90;99.90;;;;;;5064343;28;20129;-42
2022/01/05 13:31:58;;;;;;;27.10;3.42;;;7.00;99.90;;;;;;5064162;28;20135;-43
2022/01/05 13:34:34;;;;;;;22.92;3.53;;;7.00;99.90;;;;;;5063890;28;20087;-43
2022/01/05 13:37:02;;;;;;;22.73;2.60;;;7.10;99.90;;;;;;5070264;28;20048;-43
2022/01/05 13:39:41;;;;;;;26.05;4.05;;;7.10;99.90;;;;;;5049890;28;20127;-43
2022/01/05 13:42:09;;;;;;;22.10;2.60;;;7.20;99.90;;;;;;5060345;28;20522;-44
2022/01/05 13:44:36;;;;;;;20.73;3.30;;;7.20;99.90;;;;;;5062025;28;20055;-44
2022/01/05 13:47:04;;;;;;;22.92;3.65;;;7.20;99.90;;;;;;5066351;28;20412;-44
2022/01/05 13:49:32;;;;;;;29.85;3.85;;;7.20;99.90;;;;;;5057991;28;20081;-43
2022/01/05 13:52:04;;;;;;;29.20;3.30;;;7.20;99.90;;;;;;5061547;28;20055;-44
2022/01/05 13:54:33;;;;;;;25.00;4.13;;;7.20;99.90;;;;;;5057821;28;20076;-44
2022/01/05 13:57:00;;;;;;;27.10;3.42;;;7.30;99.90;;;;;;5063627;28;20056;-44
2022/01/05 13:59:44;;;;;;;34.65;4.32;;;7.40;99.90;;;;;;5039004;28;20416;-44
2022/01/05 14:02:11;;;;;;;27.17;3.30;;;7.40;99.90;;;;;;5061292;28;20059;-42
2022/01/05 14:04:51;;;;;;;30.25;4.82;;;7.40;99.90;;;;;;5060461;28;20427;-43
2022/01/05 14:07:21;;;;;;;35.40;3.95;;;7.40;99.90;;;;;;5065042;28;20083;-43
2022/01/05 14:10:09;;;;;;;28.55;4.88;;;7.40;99.90;;;;;;5042527;28;20412;-42
2022/01/05 14:12:37;;;;;;;26.10;3.92;;;7.30;99.90;;;;;;5052475;28;20044;-44
2022/01/05 14:15:05;;;;;;;22.50;3.60;;;7.30;99.90;;;;;;5042565;28;20053;-41
2022/01/05 14:17:32;;;;;;;22.67;3.13;;;7.30;99.90;;;;;;5059495;28;20525;-43